createdAt,value
2017-09-26T12:28:36.721Z,20.33
2017-09-26T12:29:38.952Z,20.31
2017-09-26T12:30:40.827Z,20.31
2017-09-26T12:31:42.715Z,20.20
2017-09-26T12:32:45.970Z,20.14
2017-09-26T12:33:48.527Z,20.13
2017-09-26T12:34:50.518Z,20.13
2017-09-26T12:35:52.402Z,20.08
2017-09-26T12:36:54.292Z,20.02
2017-09-26T12:38:08.458Z,20.02
2017-09-26T12:39:10.349Z,19.96
2017-09-26T12:40:12.234Z,20.01
2017-09-26T12:41:14.130Z,19.96
2017-09-26T12:42:15.957Z,19.99
2017-09-26T12:43:17.786Z,20.02
2017-09-26T12:44:19.674Z,20.02
2017-09-26T12:45:21.572Z,20.01
2017-09-26T12:46:23.463Z,20.06
2017-09-26T12:47:37.618Z,20.11
2017-09-26T12:48:39.509Z,20.13
2017-09-26T12:49:41.397Z,20.21
2017-09-26T12:50:43.298Z,20.29
2017-09-26T12:51:45.123Z,20.36
2017-09-26T12:52:46.957Z,20.31
2017-09-26T12:53:49.187Z,20.24
2017-09-26T12:54:51.112Z,20.31
2017-09-26T12:55:53.000Z,20.16
2017-09-26T12:57:07.195Z,20.10
2017-09-26T12:58:09.099Z,20.01
2017-09-26T12:59:11.013Z,19.96
2017-09-26T13:00:12.896Z,19.74
2017-09-26T13:01:15.042Z,19.68
2017-09-26T13:02:16.934Z,19.69
2017-09-26T13:03:18.822Z,19.62
2017-09-26T13:04:20.714Z,19.55
2017-09-26T13:05:22.924Z,19.48
2017-09-26T13:06:37.061Z,19.54
2017-09-26T13:07:38.956Z,19.58
2017-09-26T13:08:40.846Z,19.61
2017-09-26T13:09:42.740Z,19.58
2017-09-26T13:10:44.571Z,19.65
2017-09-26T13:11:46.403Z,19.61
2017-09-26T13:12:48.336Z,19.55
2017-09-26T13:13:50.216Z,19.58
2017-09-26T13:14:52.108Z,19.50
2017-09-26T13:16:06.288Z,19.54
2017-09-26T13:17:08.200Z,19.50
2017-09-26T13:18:10.093Z,19.59
2017-09-26T13:19:11.988Z,19.71
2017-09-26T13:20:13.819Z,19.61
2017-09-26T13:21:15.701Z,19.61
2017-09-26T13:22:17.589Z,19.65
2017-09-26T13:23:19.472Z,19.73
2017-09-26T13:24:21.370Z,19.63
2017-09-26T13:25:35.593Z,19.65
2017-09-26T13:26:37.487Z,19.59
2017-09-26T13:27:39.379Z,19.61
2017-09-26T13:28:41.285Z,19.63
2017-09-26T13:29:43.117Z,19.62
2017-09-26T13:30:44.948Z,19.62
2017-09-26T13:31:46.847Z,19.55
2017-09-26T13:32:48.742Z,19.55
2017-09-26T13:33:50.630Z,19.41
2017-09-26T13:35:04.814Z,19.39
2017-09-26T13:36:06.726Z,19.37
2017-09-26T13:37:08.707Z,19.25
2017-09-26T13:38:10.632Z,19.40
2017-09-26T13:39:12.472Z,19.40
2017-09-26T13:40:14.303Z,19.33
2017-09-26T13:41:16.201Z,19.33
2017-09-26T13:42:18.459Z,19.43
2017-09-26T13:43:20.353Z,19.41
2017-09-26T13:44:34.530Z,19.47
2017-09-26T13:45:36.422Z,19.44
2017-09-26T13:46:38.614Z,19.31
2017-09-26T13:47:40.513Z,19.44
2017-09-26T13:48:42.697Z,19.43
2017-09-26T13:49:44.822Z,19.46
2017-09-26T13:50:46.735Z,19.55
2017-09-26T13:51:48.625Z,19.56
2017-09-26T13:52:50.948Z,19.55
2017-09-26T13:54:05.439Z,19.63
2017-09-26T13:55:07.335Z,19.56
2017-09-26T13:56:09.227Z,19.39
2017-09-26T13:57:11.525Z,19.40
2017-09-26T13:58:13.324Z,19.47
2017-09-26T13:59:15.159Z,19.51
2017-09-26T14:00:17.017Z,19.55
2017-09-26T14:01:18.851Z,19.54
2017-09-26T14:02:20.683Z,19.56
2017-09-26T14:03:34.874Z,19.37
2017-09-26T14:04:36.770Z,19.43
2017-09-26T14:05:38.659Z,19.44
2017-09-26T14:06:40.562Z,19.32
2017-09-26T14:07:42.422Z,19.31
2017-09-26T14:08:44.259Z,19.43
2017-09-26T14:09:46.156Z,19.47
2017-09-26T14:10:48.095Z,19.41
2017-09-26T14:11:49.959Z,19.41
2017-09-26T14:13:04.129Z,19.54
2017-09-26T14:14:06.040Z,19.59
2017-09-26T14:15:07.956Z,19.61
2017-09-26T14:16:10.195Z,19.69
2017-09-26T14:17:12.021Z,19.69
2017-09-26T14:18:14.378Z,19.78
2017-09-26T14:19:16.588Z,19.84
2017-09-26T14:20:18.522Z,19.83
2017-09-26T14:21:20.413Z,19.80
2017-09-26T14:22:34.581Z,19.77
2017-09-26T14:23:36.580Z,19.76
2017-09-26T14:24:38.785Z,19.63
2017-09-26T14:25:40.686Z,19.65
2017-09-26T14:26:42.519Z,19.68
2017-09-26T14:27:44.624Z,19.63
2017-09-26T14:28:46.518Z,19.66
2017-09-26T14:29:48.416Z,19.71
2017-09-26T14:30:50.304Z,19.78
2017-09-26T14:32:04.483Z,19.92
2017-09-26T14:33:06.422Z,19.88
2017-09-26T14:34:08.308Z,19.91
2017-09-26T14:35:10.203Z,19.91
2017-09-26T14:36:12.074Z,19.84
2017-09-26T14:37:13.909Z,19.81
2017-09-26T14:38:15.804Z,19.81
2017-09-26T14:39:17.696Z,19.80
2017-09-26T14:40:19.598Z,19.78
2017-09-26T14:41:33.754Z,19.86
2017-09-26T14:42:35.648Z,19.87
2017-09-26T14:43:37.538Z,19.84
2017-09-26T14:44:39.433Z,19.88
2017-09-26T14:45:41.264Z,19.94
2017-09-26T14:46:43.097Z,19.98
2017-09-26T14:47:44.987Z,19.94
2017-09-26T14:48:46.881Z,19.96
2017-09-26T14:49:48.773Z,19.98
2017-09-26T14:51:02.939Z,19.95
2017-09-26T14:52:04.832Z,20.05
2017-09-26T14:53:06.723Z,19.99
2017-09-26T14:54:08.621Z,19.99
2017-09-26T14:55:10.451Z,19.96
2017-09-26T14:56:12.280Z,19.95
2017-09-26T14:57:14.185Z,19.95
2017-09-26T14:58:16.076Z,19.86
2017-09-26T14:59:17.967Z,19.78
2017-09-26T15:00:32.135Z,19.66
2017-09-26T15:01:34.028Z,19.71
2017-09-26T15:02:35.920Z,19.73
2017-09-26T15:03:37.813Z,19.66
2017-09-26T15:04:39.643Z,19.65
2017-09-26T15:05:41.489Z,19.66
2017-09-26T15:06:43.737Z,19.62
2017-09-26T15:07:45.662Z,19.56
2017-09-26T15:08:47.553Z,19.61
2017-09-26T15:10:01.729Z,19.58
2017-09-26T15:11:03.640Z,19.54
2017-09-26T15:12:05.526Z,19.51
2017-09-26T15:13:07.427Z,19.41
2017-09-26T15:14:09.277Z,19.25
2017-09-26T15:15:11.111Z,19.13
2017-09-26T15:16:13.016Z,19.22
2017-09-26T15:17:14.901Z,19.14
2017-09-26T15:18:16.806Z,19.14
2017-09-26T15:19:30.969Z,19.16
2017-09-26T15:20:32.865Z,19.14
2017-09-26T15:21:34.935Z,19.26
2017-09-26T15:22:36.946Z,19.26
2017-09-26T15:23:38.775Z,19.31
2017-09-26T15:24:40.609Z,19.19
2017-09-26T15:25:42.504Z,19.18
2017-09-26T15:26:44.406Z,19.13
2017-09-26T15:27:46.302Z,19.28
2017-09-26T15:29:00.463Z,19.23
2017-09-26T15:30:02.364Z,19.10
2017-09-26T15:31:04.255Z,19.07
2017-09-26T15:32:06.154Z,19.08
2017-09-26T15:33:07.987Z,19.14
2017-09-26T15:34:09.816Z,19.08
2017-09-26T15:35:11.710Z,18.92
2017-09-26T15:36:13.651Z,18.88
2017-09-26T15:37:15.526Z,18.87
2017-09-26T15:38:29.695Z,18.84
2017-09-26T15:39:31.604Z,18.80
2017-09-26T15:40:33.488Z,18.90
2017-09-26T15:41:35.390Z,18.81
2017-09-26T15:42:37.210Z,18.87
2017-09-26T15:43:39.052Z,18.81
2017-09-26T15:44:41.065Z,18.81
2017-09-26T15:45:42.948Z,18.81
2017-09-26T15:46:44.827Z,18.84
2017-09-26T15:47:58.990Z,18.72
2017-09-26T15:49:00.883Z,18.85
2017-09-26T15:50:02.776Z,18.87
2017-09-26T15:51:04.671Z,18.81
2017-09-26T15:52:06.499Z,18.81
2017-09-26T15:53:08.384Z,18.80
2017-09-26T15:54:10.243Z,18.82
2017-09-26T15:55:12.139Z,18.80
2017-09-26T15:56:14.079Z,18.81
2017-09-26T15:57:28.226Z,18.81
2017-09-26T15:58:30.180Z,18.72
2017-09-26T15:59:32.066Z,18.80
2017-09-26T16:00:33.971Z,18.65
2017-09-26T16:01:36.118Z,18.63
2017-09-26T16:02:37.926Z,18.72
2017-09-26T16:03:39.823Z,18.70
2017-09-26T16:04:41.720Z,18.60
2017-09-26T16:05:43.697Z,18.58
2017-09-26T16:06:57.850Z,18.54
2017-09-26T16:07:59.887Z,18.51
2017-09-26T16:09:01.760Z,18.52
2017-09-26T16:10:03.656Z,18.44
2017-09-26T16:11:05.520Z,18.44
2017-09-26T16:12:07.345Z,18.42
2017-09-26T16:13:09.243Z,18.45
2017-09-26T16:14:11.152Z,18.45
2017-09-26T16:15:13.044Z,18.32
2017-09-26T16:16:27.298Z,18.29
2017-09-26T16:17:29.191Z,18.30
2017-09-26T16:18:31.100Z,18.21
2017-09-26T16:19:33.015Z,18.12
2017-09-26T16:20:34.818Z,18.11
2017-09-26T16:21:36.648Z,18.08
2017-09-26T16:22:38.540Z,18.07
2017-09-26T16:23:40.436Z,18.03
2017-09-26T16:24:42.340Z,17.89
2017-09-26T16:25:56.492Z,17.77
2017-09-26T16:26:58.393Z,17.95
2017-09-26T16:28:00.279Z,17.93
2017-09-26T16:29:02.171Z,17.96
2017-09-26T16:30:03.999Z,17.95
2017-09-26T16:31:05.831Z,17.93
2017-09-26T16:32:07.719Z,17.84
2017-09-26T16:33:09.610Z,17.79
2017-09-26T16:34:11.506Z,17.66
2017-09-26T16:35:25.668Z,17.74
2017-09-26T16:36:27.561Z,17.84
2017-09-26T16:37:29.483Z,17.77
2017-09-26T16:38:31.346Z,17.79
2017-09-26T16:39:33.184Z,17.79
2017-09-26T16:40:35.028Z,17.68
2017-09-26T16:41:36.923Z,17.68
2017-09-26T16:42:38.815Z,17.62
2017-09-26T16:43:40.704Z,17.64
2017-09-26T16:44:54.864Z,17.64
2017-09-26T16:45:56.758Z,17.62
2017-09-26T16:46:58.649Z,17.66
2017-09-26T16:48:00.537Z,17.64
2017-09-26T16:49:02.369Z,17.59
2017-09-26T16:50:04.194Z,17.64
2017-09-26T16:51:06.084Z,17.72
2017-09-26T16:52:07.982Z,17.58
2017-09-26T16:53:09.871Z,17.63
2017-09-26T16:54:24.032Z,17.66
2017-09-26T16:55:25.925Z,17.66
2017-09-26T16:56:27.812Z,17.72
2017-09-26T16:57:29.704Z,17.64
2017-09-26T16:58:31.530Z,17.63
2017-09-26T16:59:33.359Z,17.64
2017-09-26T17:00:35.339Z,17.63
2017-09-26T17:01:37.303Z,17.70
2017-09-26T17:02:39.191Z,17.70
2017-09-26T17:03:53.350Z,17.64
2017-09-26T17:04:55.242Z,17.63
2017-09-26T17:05:57.128Z,17.62
2017-09-26T17:06:59.020Z,17.58
2017-09-26T17:08:00.845Z,17.52
2017-09-26T17:09:02.671Z,17.59
2017-09-26T17:10:04.560Z,17.59
2017-09-26T17:11:06.449Z,17.56
2017-09-26T17:12:08.335Z,17.62
2017-09-26T17:13:22.500Z,17.64
2017-09-26T17:14:24.384Z,17.62
2017-09-26T17:15:26.270Z,17.58
2017-09-26T17:16:28.160Z,17.74
2017-09-26T17:17:29.982Z,17.64
2017-09-26T17:18:31.806Z,17.70
2017-09-26T17:19:33.692Z,17.64
2017-09-26T17:20:35.583Z,17.66
2017-09-26T17:21:37.468Z,17.62
2017-09-26T17:22:52.024Z,17.68
2017-09-26T17:23:54.007Z,17.59
2017-09-26T17:24:55.892Z,17.72
2017-09-26T17:25:57.793Z,17.66
2017-09-26T17:26:59.616Z,17.63
2017-09-26T17:28:01.442Z,17.58
2017-09-26T17:29:03.334Z,17.56
2017-09-26T17:30:05.224Z,17.62
2017-09-26T17:31:07.111Z,17.63
2017-09-26T17:32:21.271Z,17.59
2017-09-26T17:33:23.160Z,17.54
2017-09-26T17:34:25.052Z,17.55
2017-09-26T17:35:26.943Z,17.54
2017-09-26T17:36:28.765Z,17.48
2017-09-26T17:37:30.595Z,17.46
2017-09-26T17:38:32.487Z,17.31
2017-09-26T17:39:34.373Z,17.36
2017-09-26T17:40:36.260Z,17.26
2017-09-26T17:41:50.415Z,17.30
2017-09-26T17:42:52.306Z,17.30
2017-09-26T17:43:54.192Z,17.23
2017-09-26T17:44:56.082Z,17.18
2017-09-26T17:45:57.906Z,17.31
2017-09-26T17:46:59.730Z,17.23
2017-09-26T17:48:01.619Z,17.22
2017-09-26T17:49:03.509Z,17.21
2017-09-26T17:50:05.398Z,17.34
2017-09-26T17:51:19.554Z,17.28
2017-09-26T17:52:21.444Z,17.21
2017-09-26T17:53:23.332Z,17.34
2017-09-26T17:54:25.221Z,17.30
2017-09-26T17:55:27.047Z,17.23
2017-09-26T17:56:29.250Z,17.18
2017-09-26T17:57:31.071Z,17.15
2017-09-26T17:58:32.894Z,17.26
2017-09-26T17:59:34.747Z,17.28
2017-09-26T18:00:48.898Z,17.18
2017-09-26T18:01:50.791Z,17.30
2017-09-26T18:02:52.701Z,17.18
2017-09-26T18:03:54.593Z,17.23
2017-09-26T18:04:56.419Z,17.33
2017-09-26T18:05:58.297Z,17.26
2017-09-26T18:07:00.179Z,17.21
2017-09-26T18:08:02.068Z,17.30
2017-09-26T18:09:03.959Z,17.34
2017-09-26T18:10:18.110Z,17.28
2017-09-26T18:11:20.001Z,17.28
2017-09-26T18:12:21.891Z,17.26
2017-09-26T18:13:23.780Z,17.28
2017-09-26T18:14:25.609Z,17.16
2017-09-26T18:15:27.432Z,17.30
2017-09-26T18:16:29.319Z,17.21
2017-09-26T18:17:31.171Z,17.19
2017-09-26T18:18:32.992Z,17.26
2017-09-26T18:19:47.152Z,17.23
2017-09-26T18:20:49.040Z,17.21
2017-09-26T18:21:50.929Z,17.21
2017-09-26T18:22:52.815Z,17.37
2017-09-26T18:23:54.641Z,17.25
2017-09-26T18:24:56.464Z,17.36
2017-09-26T18:25:58.354Z,17.36
2017-09-26T18:27:00.255Z,17.25
2017-09-26T18:28:02.133Z,17.28
2017-09-26T18:29:16.327Z,17.25
2017-09-26T18:30:18.201Z,17.25
2017-09-26T18:31:20.109Z,17.21
2017-09-26T18:32:22.003Z,17.25
2017-09-26T18:33:23.822Z,17.26
